ROMMA est une association bénévole à but non lucratif. Votre soutien est indispensable : ADHERER à ROMMA ou FAIRE un DON

Granges-lès-Beaumont - (26, Drôme)

Drôme des Collines (155 m)   Longitude: 04°58'E   Latitude: 45°03'N Station partenaire n°123
 

Détail journalier du     <<     >>

Température Precipitation Humidité Pression Vent Dir Rafale Dir. rafale Ensol.
Heure (°C) (mm) (%) (hPa) (km/h) (km/h) (min)
01:00 12.908410136ENE13ENE0
02:00 12.308710145ENE13E0
03:00 12.808610156ENE15ENE0
04:00 12.608610155E15ENE0
05:00 12.608610152---11E0
06:00 12.508710158ENE15E0
07:00 13.008510163NNE13ENE0
08:00 11.408910161NO8NO0
09:00 11.309010172E10E0
10:00 12.6086101700---0
11:00 14.308110175SO13SSO60
12:00 16.307310178SSO26S60
13:00 17.406910169S21S60
14:00 17.5070101610SSE29S60
15:00 17.1072101614S35SSO40
16:00 16.7074101613SSO35S40
17:00 14.808010165S23S30
18:00 13.308410168E13E0
19:00 14.608110166ESE13S0
20:00 14.508110175SSE11SSE0
21:00 13.608310175SSE13S0
22:00 13.208410177SSE16S0
23:00 13.308410178SSO16S0
minuit 13.108410168S18S0

Graphique du 18-12-2019

 

Serveur OMMA